Airfield :
LOGIN :

Register | Disclaimer

   EN    FR    IT 

 










Legend :    VFR   Marginal VFR   IFR   Intensive IFR   Very Intensive IFR
Visi :
Ceiling :
>= 8 km
>= 3000ft
5 to 8 km
1000 to 3000 ft
1500m to 5 km
500 to 1000 ft
800 to 1500m
200 to 500 ft
< 800m
< 200 ft
Symbols :   Thunderstorms  Fog  Heavy snow  Heavy precipitations  Wind > 20 kt
SIGMETs :     Misc.  Thunderstorms  Icing  Turbulence  Mountain Waves  Volcanic Ashes







- Airport Elevation : 249 ft


EGOS - RAF Shawbury

CURRENT METAR :
  • 242150Z 33005KT 8000 HZ BKN035 17/16 Q1018 BLU BECMG 7000 HZ RMK BLU BECMG WHT

EXPIRED METARs :
  • 242120Z 36005KT 8000 HZ SCT035 BKN100 18/16 Q1019 BECMG 7000 HZ RMK BLU BECMG WHT
  • 242050Z 34006KT 8000 HZ SCT035 BKN100 18/16 Q1018 BECMG 7000 HZ RMK BLU BECMG WHT
  • 242021Z 35006KT 8000 HZ SCT035 BKN100 18/16 Q1018 RMK BLU
  • 241950Z 33008KT 8000 HZ SCT040 BKN150 18/17 Q1018 RMK BLU
  • 241920Z 33007KT 8000 HZ FEW020 SCT060 BKN150 19/17 Q1017 RMK BLU

TAF TAF EGOS
Valid from the 24 at 21:00 until the 25 at 02:00 UTC


241942Z 2421/2502 35006KT 8000 HZ FEW020
BECMG 2421/2424 6000 HZ SCT020
PROB30 2500/2502 4000 BR SCT008
No reported NOTAMs for that airfield.
1 SIGMET reported for the London FIR (EGTT) :
 
Embedded thunderstorms
EGTT SIGMET 07 VALID 242100/250100 EGRR
EGTT LONDON FIR EMBD TS FCST WI N5000 W00200 - N5040 W00130 - N5040 E00030 - N5016 E00027 - N5000 W00015 - N5000 W00200 TOP FL360 MOV NNE 20KT NC=



MET'MAP, your aeronautical weather chart ! - Copyright ORBIFLY December 2007 - Disclaimer

ORBIFLY MET'MAP TEAM :

Programming & Development : Alexandra Zaïnal
Concept & Development : Baudouin d'Aumeries
Co-Development & Prog : Marc-Olivier Méhu
Technical & hardware support : Manuel Goepfert

Contact : metmap@orbifly.com




SOURCES & CREDITS :

   NOAA